sensor_id;sensor_type;location;lat;lon;timestamp;P1;durP1;ratioP1;P2;durP2;ratioP2
44987;SDS011;35735;52.226;21.254;2024-02-15T00:02:37;9.50;;;5.60;;
44987;SDS011;35735;52.226;21.254;2024-02-15T00:07:38;14.32;;;5.97;;
44987;SDS011;35735;52.226;21.254;2024-02-15T00:12:40;10.27;;;6.00;;
44987;SDS011;35735;52.226;21.254;2024-02-15T00:17:41;8.57;;;5.50;;
44987;SDS011;35735;52.226;21.254;2024-02-15T00:22:43;9.00;;;5.75;;
44987;SDS011;35735;52.226;21.254;2024-02-15T00:27:45;13.15;;;6.18;;
44987;SDS011;35735;52.226;21.254;2024-02-15T00:32:46;11.70;;;6.62;;
44987;SDS011;35735;52.226;21.254;2024-02-15T00:37:47;11.48;;;6.40;;
44987;SDS011;35735;52.226;21.254;2024-02-15T00:42:49;12.43;;;6.50;;
44987;SDS011;35735;52.226;21.254;2024-02-15T00:47:50;11.18;;;5.82;;
44987;SDS011;35735;52.226;21.254;2024-02-15T00:52:51;10.60;;;6.40;;
44987;SDS011;35735;52.226;21.254;2024-02-15T00:57:53;10.95;;;6.32;;
44987;SDS011;35735;52.226;21.254;2024-02-15T01:02:55;12.47;;;6.90;;
44987;SDS011;35735;52.226;21.254;2024-02-15T01:07:56;10.90;;;6.12;;
44987;SDS011;35735;52.226;21.254;2024-02-15T01:12:57;13.70;;;7.18;;
44987;SDS011;35735;52.226;21.254;2024-02-15T01:17:59;11.45;;;6.87;;
44987;SDS011;35735;52.226;21.254;2024-02-15T01:23:00;11.15;;;7.05;;
44987;SDS011;35735;52.226;21.254;2024-02-15T01:28:02;12.27;;;6.93;;
44987;SDS011;35735;52.226;21.254;2024-02-15T01:33:03;11.43;;;6.40;;
44987;SDS011;35735;52.226;21.254;2024-02-15T01:38:05;12.95;;;6.65;;
44987;SDS011;35735;52.226;21.254;2024-02-15T01:43:06;12.05;;;7.07;;
44987;SDS011;35735;52.226;21.254;2024-02-15T01:48:07;15.77;;;7.68;;
44987;SDS011;35735;52.226;21.254;2024-02-15T01:53:09;11.90;;;6.72;;
44987;SDS011;35735;52.226;21.254;2024-02-15T01:58:11;12.40;;;7.12;;
44987;SDS011;35735;52.226;21.254;2024-02-15T02:03:13;11.00;;;7.00;;
44987;SDS011;35735;52.226;21.254;2024-02-15T02:08:15;11.27;;;6.85;;
44987;SDS011;35735;52.226;21.254;2024-02-15T02:13:17;13.67;;;7.23;;
44987;SDS011;35735;52.226;21.254;2024-02-15T02:18:18;11.90;;;7.30;;
44987;SDS011;35735;52.226;21.254;2024-02-15T02:23:20;15.68;;;7.20;;
44987;SDS011;35735;52.226;21.254;2024-02-15T02:28:26;11.60;;;6.85;;
44987;SDS011;35735;52.226;21.254;2024-02-15T02:33:28;10.13;;;6.70;;
44987;SDS011;35735;52.226;21.254;2024-02-15T02:38:29;12.93;;;6.97;;
44987;SDS011;35735;52.226;21.254;2024-02-15T02:43:30;12.13;;;7.18;;
44987;SDS011;35735;52.226;21.254;2024-02-15T02:48:32;13.45;;;7.05;;
44987;SDS011;35735;52.226;21.254;2024-02-15T02:53:33;11.40;;;6.90;;
44987;SDS011;35735;52.226;21.254;2024-02-15T02:58:35;11.20;;;6.75;;
44987;SDS011;35735;52.226;21.254;2024-02-15T03:03:36;12.90;;;6.93;;
44987;SDS011;35735;52.226;21.254;2024-02-15T03:08:37;15.32;;;7.68;;
44987;SDS011;35735;52.226;21.254;2024-02-15T03:13:39;11.90;;;7.28;;
44987;SDS011;35735;52.226;21.254;2024-02-15T03:18:41;10.45;;;6.70;;
44987;SDS011;35735;52.226;21.254;2024-02-15T03:23:42;12.85;;;6.90;;
44987;SDS011;35735;52.226;21.254;2024-02-15T03:28:43;14.18;;;7.40;;
44987;SDS011;35735;52.226;21.254;2024-02-15T03:33:44;12.82;;;6.95;;
44987;SDS011;35735;52.226;21.254;2024-02-15T03:38:46;11.57;;;7.07;;
44987;SDS011;35735;52.226;21.254;2024-02-15T03:43:47;12.65;;;7.30;;
44987;SDS011;35735;52.226;21.254;2024-02-15T03:48:49;12.48;;;6.62;;
44987;SDS011;35735;52.226;21.254;2024-02-15T03:53:50;14.13;;;7.55;;
44987;SDS011;35735;52.226;21.254;2024-02-15T03:58:52;12.93;;;7.15;;
44987;SDS011;35735;52.226;21.254;2024-02-15T04:03:53;12.90;;;6.97;;
44987;SDS011;35735;52.226;21.254;2024-02-15T04:08:54;13.35;;;8.05;;
44987;SDS011;35735;52.226;21.254;2024-02-15T04:13:55;14.90;;;8.13;;
44987;SDS011;35735;52.226;21.254;2024-02-15T04:18:57;13.90;;;8.63;;
44987;SDS011;35735;52.226;21.254;2024-02-15T04:23:58;11.82;;;7.93;;
44987;SDS011;35735;52.226;21.254;2024-02-15T04:28:59;10.68;;;7.47;;
44987;SDS011;35735;52.226;21.254;2024-02-15T04:34:01;13.38;;;8.02;;
44987;SDS011;35735;52.226;21.254;2024-02-15T04:39:02;17.02;;;9.40;;
44987;SDS011;35735;52.226;21.254;2024-02-15T04:44:04;16.02;;;8.50;;
44987;SDS011;35735;52.226;21.254;2024-02-15T04:49:05;14.52;;;8.48;;
44987;SDS011;35735;52.226;21.254;2024-02-15T04:54:07;13.65;;;8.05;;
44987;SDS011;35735;52.226;21.254;2024-02-15T04:59:09;14.63;;;9.03;;
44987;SDS011;35735;52.226;21.254;2024-02-15T05:04:11;13.93;;;7.70;;
44987;SDS011;35735;52.226;21.254;2024-02-15T05:09:12;17.73;;;8.23;;
44987;SDS011;35735;52.226;21.254;2024-02-15T05:14:14;13.25;;;8.00;;
44987;SDS011;35735;52.226;21.254;2024-02-15T05:19:16;19.52;;;8.40;;
44987;SDS011;35735;52.226;21.254;2024-02-15T05:24:18;14.47;;;8.50;;
44987;SDS011;35735;52.226;21.254;2024-02-15T05:29:19;15.68;;;8.32;;
44987;SDS011;35735;52.226;21.254;2024-02-15T05:34:21;15.97;;;8.83;;
44987;SDS011;35735;52.226;21.254;2024-02-15T05:39:22;18.80;;;9.32;;
44987;SDS011;35735;52.226;21.254;2024-02-15T05:44:23;15.17;;;9.47;;
44987;SDS011;35735;52.226;21.254;2024-02-15T05:49:27;16.93;;;9.17;;
44987;SDS011;35735;52.226;21.254;2024-02-15T05:54:28;17.15;;;10.32;;
44987;SDS011;35735;52.226;21.254;2024-02-15T05:59:29;16.10;;;9.55;;
44987;SDS011;35735;52.226;21.254;2024-02-15T06:04:30;16.00;;;9.07;;
44987;SDS011;35735;52.226;21.254;2024-02-15T06:09:32;17.87;;;9.45;;
44987;SDS011;35735;52.226;21.254;2024-02-15T06:14:33;27.33;;;9.68;;
44987;SDS011;35735;52.226;21.254;2024-02-15T06:19:34;20.77;;;10.05;;
44987;SDS011;35735;52.226;21.254;2024-02-15T06:24:36;18.70;;;9.68;;
44987;SDS011;35735;52.226;21.254;2024-02-15T06:29:37;18.92;;;8.93;;
44987;SDS011;35735;52.226;21.254;2024-02-15T06:34:38;19.37;;;9.93;;
44987;SDS011;35735;52.226;21.254;2024-02-15T06:39:40;16.75;;;9.18;;
44987;SDS011;35735;52.226;21.254;2024-02-15T06:44:42;15.40;;;9.70;;
44987;SDS011;35735;52.226;21.254;2024-02-15T06:49:45;15.60;;;8.70;;
44987;SDS011;35735;52.226;21.254;2024-02-15T06:54:47;19.05;;;10.10;;
44987;SDS011;35735;52.226;21.254;2024-02-15T06:59:48;16.12;;;9.57;;
44987;SDS011;35735;52.226;21.254;2024-02-15T07:04:49;16.62;;;9.98;;
44987;SDS011;35735;52.226;21.254;2024-02-15T07:09:51;15.15;;;10.30;;
44987;SDS011;35735;52.226;21.254;2024-02-15T07:14:52;17.90;;;10.68;;
44987;SDS011;35735;52.226;21.254;2024-02-15T07:19:53;17.60;;;10.98;;
44987;SDS011;35735;52.226;21.254;2024-02-15T07:24:55;19.92;;;11.45;;
44987;SDS011;35735;52.226;21.254;2024-02-15T07:29:56;20.02;;;11.57;;
44987;SDS011;35735;52.226;21.254;2024-02-15T07:34:57;19.17;;;11.38;;
44987;SDS011;35735;52.226;21.254;2024-02-15T07:39:59;21.87;;;11.32;;
44987;SDS011;35735;52.226;21.254;2024-02-15T07:45:01;20.98;;;11.95;;
44987;SDS011;35735;52.226;21.254;2024-02-15T07:50:02;24.73;;;13.10;;
44987;SDS011;35735;52.226;21.254;2024-02-15T07:55:04;27.00;;;14.15;;
44987;SDS011;35735;52.226;21.254;2024-02-15T08:00:08;19.83;;;12.70;;
44987;SDS011;35735;52.226;21.254;2024-02-15T08:05:10;27.17;;;14.10;;
44987;SDS011;35735;52.226;21.254;2024-02-15T08:10:13;21.97;;;12.87;;
44987;SDS011;35735;52.226;21.254;2024-02-15T08:15:14;28.17;;;13.10;;
44987;SDS011;35735;52.226;21.254;2024-02-15T08:20:16;21.90;;;12.67;;
44987;SDS011;35735;52.226;21.254;2024-02-15T08:25:17;23.30;;;12.77;;
44987;SDS011;35735;52.226;21.254;2024-02-15T08:30:18;22.62;;;12.95;;
44987;SDS011;35735;52.226;21.254;2024-02-15T08:35:20;23.63;;;14.27;;
44987;SDS011;35735;52.226;21.254;2024-02-15T08:40:21;25.23;;;13.97;;
44987;SDS011;35735;52.226;21.254;2024-02-15T08:45:22;22.97;;;13.37;;
44987;SDS011;35735;52.226;21.254;2024-02-15T08:50:24;36.73;;;16.60;;
44987;SDS011;35735;52.226;21.254;2024-02-15T08:55:25;24.77;;;15.30;;
44987;SDS011;35735;52.226;21.254;2024-02-15T09:00:26;30.80;;;15.20;;
44987;SDS011;35735;52.226;21.254;2024-02-15T09:05:28;26.93;;;16.10;;
44987;SDS011;35735;52.226;21.254;2024-02-15T09:10:29;25.50;;;15.70;;
44987;SDS011;35735;52.226;21.254;2024-02-15T09:15:30;26.10;;;15.55;;
44987;SDS011;35735;52.226;21.254;2024-02-15T09:20:31;34.33;;;16.58;;
44987;SDS011;35735;52.226;21.254;2024-02-15T09:25:33;30.33;;;17.20;;
44987;SDS011;35735;52.226;21.254;2024-02-15T09:30:34;30.70;;;18.00;;
44987;SDS011;35735;52.226;21.254;2024-02-15T09:35:35;32.67;;;18.80;;
44987;SDS011;35735;52.226;21.254;2024-02-15T09:40:37;27.87;;;17.55;;
44987;SDS011;35735;52.226;21.254;2024-02-15T09:45:38;29.35;;;17.17;;
44987;SDS011;35735;52.226;21.254;2024-02-15T09:50:41;29.23;;;16.40;;
44987;SDS011;35735;52.226;21.254;2024-02-15T09:55:42;30.90;;;17.02;;
44987;SDS011;35735;52.226;21.254;2024-02-15T10:00:44;27.83;;;15.83;;
44987;SDS011;35735;52.226;21.254;2024-02-15T10:05:47;27.05;;;16.90;;
44987;SDS011;35735;52.226;21.254;2024-02-15T10:11:04;29.15;;;17.10;;
44987;SDS011;35735;52.226;21.254;2024-02-15T10:16:17;28.60;;;17.50;;
44987;SDS011;35735;52.226;21.254;2024-02-15T10:21:26;31.13;;;17.80;;
44987;SDS011;35735;52.226;21.254;2024-02-15T10:26:28;33.00;;;18.90;;
44987;SDS011;35735;52.226;21.254;2024-02-15T10:31:29;30.10;;;18.27;;
44987;SDS011;35735;52.226;21.254;2024-02-15T10:36:30;30.37;;;18.85;;
44987;SDS011;35735;52.226;21.254;2024-02-15T10:41:32;30.25;;;20.10;;
44987;SDS011;35735;52.226;21.254;2024-02-15T10:46:34;29.43;;;18.90;;
44987;SDS011;35735;52.226;21.254;2024-02-15T10:51:36;39.38;;;21.27;;
44987;SDS011;35735;52.226;21.254;2024-02-15T10:56:44;36.95;;;19.70;;
44987;SDS011;35735;52.226;21.254;2024-02-15T11:01:50;32.70;;;20.00;;
44987;SDS011;35735;52.226;21.254;2024-02-15T11:06:59;30.90;;;20.25;;
44987;SDS011;35735;52.226;21.254;2024-02-15T11:12:02;29.95;;;18.65;;
44987;SDS011;35735;52.226;21.254;2024-02-15T11:17:06;29.83;;;19.07;;
44987;SDS011;35735;52.226;21.254;2024-02-15T11:22:08;30.78;;;19.06;;
44987;SDS011;35735;52.226;21.254;2024-02-15T11:27:10;33.17;;;18.12;;
44987;SDS011;35735;52.226;21.254;2024-02-15T11:32:26;27.83;;;17.55;;
44987;SDS011;35735;52.226;21.254;2024-02-15T11:42:50;26.30;;;17.45;;
44987;SDS011;35735;52.226;21.254;2024-02-15T11:47:56;24.85;;;17.58;;
44987;SDS011;35735;52.226;21.254;2024-02-15T11:53:01;26.00;;;17.37;;
44987;SDS011;35735;52.226;21.254;2024-02-15T11:58:05;28.45;;;18.10;;
44987;SDS011;35735;52.226;21.254;2024-02-15T12:03:08;27.80;;;17.57;;
44987;SDS011;35735;52.226;21.254;2024-02-15T12:08:10;24.93;;;16.83;;
44987;SDS011;35735;52.226;21.254;2024-02-15T12:13:17;29.27;;;17.47;;
44987;SDS011;35735;52.226;21.254;2024-02-15T12:18:19;26.80;;;17.07;;
44987;SDS011;35735;52.226;21.254;2024-02-15T12:23:20;28.02;;;17.67;;
44987;SDS011;35735;52.226;21.254;2024-02-15T12:28:21;25.75;;;16.35;;
44987;SDS011;35735;52.226;21.254;2024-02-15T12:33:23;24.30;;;16.73;;
44987;SDS011;35735;52.226;21.254;2024-02-15T12:38:24;24.08;;;16.67;;
44987;SDS011;35735;52.226;21.254;2024-02-15T12:43:25;22.02;;;15.63;;
44987;SDS011;35735;52.226;21.254;2024-02-15T12:48:27;25.90;;;16.40;;
44987;SDS011;35735;52.226;21.254;2024-02-15T12:53:28;25.15;;;17.52;;
44987;SDS011;35735;52.226;21.254;2024-02-15T12:58:29;25.52;;;16.05;;
44987;SDS011;35735;52.226;21.254;2024-02-15T13:03:31;29.77;;;16.20;;
44987;SDS011;35735;52.226;21.254;2024-02-15T13:08:32;31.02;;;16.00;;
44987;SDS011;35735;52.226;21.254;2024-02-15T13:13:33;25.83;;;16.47;;
44987;SDS011;35735;52.226;21.254;2024-02-15T13:18:35;24.15;;;15.13;;
44987;SDS011;35735;52.226;21.254;2024-02-15T13:23:36;26.02;;;15.95;;
44987;SDS011;35735;52.226;21.254;2024-02-15T13:28:37;23.08;;;14.85;;
44987;SDS011;35735;52.226;21.254;2024-02-15T13:33:38;26.12;;;16.17;;
44987;SDS011;35735;52.226;21.254;2024-02-15T13:38:40;27.50;;;15.27;;
44987;SDS011;35735;52.226;21.254;2024-02-15T13:43:41;24.10;;;15.50;;
44987;SDS011;35735;52.226;21.254;2024-02-15T13:48:43;25.45;;;14.90;;
44987;SDS011;35735;52.226;21.254;2024-02-15T13:53:44;24.83;;;15.00;;
44987;SDS011;35735;52.226;21.254;2024-02-15T13:58:45;24.58;;;15.05;;
44987;SDS011;35735;52.226;21.254;2024-02-15T14:03:47;24.92;;;14.18;;
44987;SDS011;35735;52.226;21.254;2024-02-15T14:08:48;22.27;;;14.60;;
44987;SDS011;35735;52.226;21.254;2024-02-15T14:13:49;24.55;;;15.00;;
44987;SDS011;35735;52.226;21.254;2024-02-15T14:18:51;23.85;;;14.18;;
44987;SDS011;35735;52.226;21.254;2024-02-15T14:23:52;20.37;;;14.27;;
44987;SDS011;35735;52.226;21.254;2024-02-15T14:28:53;23.70;;;15.63;;
44987;SDS011;35735;52.226;21.254;2024-02-15T14:33:55;27.17;;;15.43;;
44987;SDS011;35735;52.226;21.254;2024-02-15T14:38:56;21.52;;;14.87;;
44987;SDS011;35735;52.226;21.254;2024-02-15T14:43:58;22.45;;;14.40;;
44987;SDS011;35735;52.226;21.254;2024-02-15T14:48:59;26.15;;;15.68;;
44987;SDS011;35735;52.226;21.254;2024-02-15T14:54:00;23.58;;;15.77;;
44987;SDS011;35735;52.226;21.254;2024-02-15T14:59:02;23.10;;;15.23;;
44987;SDS011;35735;52.226;21.254;2024-02-15T15:04:03;23.42;;;14.93;;
44987;SDS011;35735;52.226;21.254;2024-02-15T15:09:04;27.70;;;15.93;;
44987;SDS011;35735;52.226;21.254;2024-02-15T15:14:06;23.80;;;15.38;;
44987;SDS011;35735;52.226;21.254;2024-02-15T15:19:07;27.73;;;17.03;;
44987;SDS011;35735;52.226;21.254;2024-02-15T15:24:09;33.10;;;17.37;;
44987;SDS011;35735;52.226;21.254;2024-02-15T15:29:10;27.92;;;16.12;;
44987;SDS011;35735;52.226;21.254;2024-02-15T15:34:11;29.02;;;16.35;;
44987;SDS011;35735;52.226;21.254;2024-02-15T15:39:13;31.65;;;17.90;;
44987;SDS011;35735;52.226;21.254;2024-02-15T15:44:14;26.05;;;16.17;;
44987;SDS011;35735;52.226;21.254;2024-02-15T15:49:16;26.30;;;16.37;;
44987;SDS011;35735;52.226;21.254;2024-02-15T15:54:17;29.83;;;16.97;;
44987;SDS011;35735;52.226;21.254;2024-02-15T15:59:18;29.23;;;17.42;;
44987;SDS011;35735;52.226;21.254;2024-02-15T16:04:20;29.40;;;17.10;;
44987;SDS011;35735;52.226;21.254;2024-02-15T16:09:21;25.57;;;16.90;;
44987;SDS011;35735;52.226;21.254;2024-02-15T16:14:22;27.73;;;16.60;;
44987;SDS011;35735;52.226;21.254;2024-02-15T16:19:24;23.17;;;16.23;;
44987;SDS011;35735;52.226;21.254;2024-02-15T16:24:25;25.98;;;17.23;;
44987;SDS011;35735;52.226;21.254;2024-02-15T16:29:26;32.05;;;17.80;;
44987;SDS011;35735;52.226;21.254;2024-02-15T16:34:28;26.52;;;17.48;;
44987;SDS011;35735;52.226;21.254;2024-02-15T16:39:29;28.83;;;18.40;;
44987;SDS011;35735;52.226;21.254;2024-02-15T16:44:30;26.27;;;17.10;;
44987;SDS011;35735;52.226;21.254;2024-02-15T16:49:32;29.73;;;18.87;;
44987;SDS011;35735;52.226;21.254;2024-02-15T16:54:33;26.95;;;18.00;;
44987;SDS011;35735;52.226;21.254;2024-02-15T16:59:34;27.27;;;17.30;;
44987;SDS011;35735;52.226;21.254;2024-02-15T17:04:36;27.02;;;17.55;;
44987;SDS011;35735;52.226;21.254;2024-02-15T17:09:38;32.13;;;19.55;;
44987;SDS011;35735;52.226;21.254;2024-02-15T17:14:39;28.75;;;18.62;;
44987;SDS011;35735;52.226;21.254;2024-02-15T17:19:40;29.07;;;17.97;;
44987;SDS011;35735;52.226;21.254;2024-02-15T17:24:41;29.20;;;18.17;;
44987;SDS011;35735;52.226;21.254;2024-02-15T17:29:43;30.37;;;18.42;;
44987;SDS011;35735;52.226;21.254;2024-02-15T17:34:44;31.55;;;19.77;;
44987;SDS011;35735;52.226;21.254;2024-02-15T17:39:46;40.25;;;22.67;;
44987;SDS011;35735;52.226;21.254;2024-02-15T17:44:47;34.80;;;22.25;;
44987;SDS011;35735;52.226;21.254;2024-02-15T17:49:48;35.80;;;21.47;;
44987;SDS011;35735;52.226;21.254;2024-02-15T17:54:50;33.80;;;21.80;;
44987;SDS011;35735;52.226;21.254;2024-02-15T17:59:51;38.70;;;24.70;;
44987;SDS011;35735;52.226;21.254;2024-02-15T18:04:52;33.13;;;20.70;;
44987;SDS011;35735;52.226;21.254;2024-02-15T18:09:54;30.10;;;19.35;;
44987;SDS011;35735;52.226;21.254;2024-02-15T18:14:56;25.62;;;17.37;;
44987;SDS011;35735;52.226;21.254;2024-02-15T18:19:58;24.48;;;16.25;;
44987;SDS011;35735;52.226;21.254;2024-02-15T18:24:59;29.15;;;17.40;;
44987;SDS011;35735;52.226;21.254;2024-02-15T18:30:00;28.42;;;16.73;;
44987;SDS011;35735;52.226;21.254;2024-02-15T18:35:04;25.23;;;15.88;;
44987;SDS011;35735;52.226;21.254;2024-02-15T18:40:07;25.33;;;14.98;;
44987;SDS011;35735;52.226;21.254;2024-02-15T18:45:09;22.88;;;14.86;;
44987;SDS011;35735;52.226;21.254;2024-02-15T18:50:10;24.93;;;16.50;;
44987;SDS011;35735;52.226;21.254;2024-02-15T18:55:11;28.17;;;17.55;;
44987;SDS011;35735;52.226;21.254;2024-02-15T19:00:13;24.67;;;15.48;;
44987;SDS011;35735;52.226;21.254;2024-02-15T19:05:15;25.48;;;16.95;;
44987;SDS011;35735;52.226;21.254;2024-02-15T19:10:17;26.60;;;17.07;;
44987;SDS011;35735;52.226;21.254;2024-02-15T19:15:19;26.15;;;16.33;;
44987;SDS011;35735;52.226;21.254;2024-02-15T19:20:20;24.17;;;15.77;;
44987;SDS011;35735;52.226;21.254;2024-02-15T19:25:22;25.00;;;16.15;;
44987;SDS011;35735;52.226;21.254;2024-02-15T19:30:23;27.73;;;17.17;;
44987;SDS011;35735;52.226;21.254;2024-02-15T19:35:24;27.30;;;16.60;;
44987;SDS011;35735;52.226;21.254;2024-02-15T19:40:26;25.15;;;15.30;;
44987;SDS011;35735;52.226;21.254;2024-02-15T19:45:27;23.15;;;15.00;;
44987;SDS011;35735;52.226;21.254;2024-02-15T19:50:28;23.60;;;15.43;;
44987;SDS011;35735;52.226;21.254;2024-02-15T19:55:30;22.93;;;14.80;;
44987;SDS011;35735;52.226;21.254;2024-02-15T20:00:32;26.10;;;16.05;;
44987;SDS011;35735;52.226;21.254;2024-02-15T20:05:33;24.50;;;15.15;;
44987;SDS011;35735;52.226;21.254;2024-02-15T20:10:35;23.00;;;15.45;;
44987;SDS011;35735;52.226;21.254;2024-02-15T20:15:36;26.57;;;16.17;;
44987;SDS011;35735;52.226;21.254;2024-02-15T20:20:37;22.50;;;14.95;;
44987;SDS011;35735;52.226;21.254;2024-02-15T20:25:38;22.90;;;15.30;;
44987;SDS011;35735;52.226;21.254;2024-02-15T20:30:40;25.42;;;15.32;;
44987;SDS011;35735;52.226;21.254;2024-02-15T20:35:42;26.55;;;15.57;;
44987;SDS011;35735;52.226;21.254;2024-02-15T20:40:44;28.17;;;16.20;;
44987;SDS011;35735;52.226;21.254;2024-02-15T20:45:45;23.35;;;16.30;;
44987;SDS011;35735;52.226;21.254;2024-02-15T20:50:47;25.57;;;16.50;;
44987;SDS011;35735;52.226;21.254;2024-02-15T20:55:49;27.15;;;17.08;;
44987;SDS011;35735;52.226;21.254;2024-02-15T21:00:50;24.80;;;16.00;;
44987;SDS011;35735;52.226;21.254;2024-02-15T21:05:52;25.27;;;16.40;;
44987;SDS011;35735;52.226;21.254;2024-02-15T21:10:53;26.12;;;16.12;;
44987;SDS011;35735;52.226;21.254;2024-02-15T21:15:54;27.92;;;17.80;;
44987;SDS011;35735;52.226;21.254;2024-02-15T21:20:56;27.67;;;17.98;;
44987;SDS011;35735;52.226;21.254;2024-02-15T21:25:57;25.00;;;16.83;;
44987;SDS011;35735;52.226;21.254;2024-02-15T21:30:58;22.60;;;15.13;;
44987;SDS011;35735;52.226;21.254;2024-02-15T21:36:00;22.30;;;15.05;;
44987;SDS011;35735;52.226;21.254;2024-02-15T21:41:01;24.67;;;15.23;;
44987;SDS011;35735;52.226;21.254;2024-02-15T21:46:02;22.08;;;14.60;;
44987;SDS011;35735;52.226;21.254;2024-02-15T21:51:05;28.02;;;14.82;;
44987;SDS011;35735;52.226;21.254;2024-02-15T21:56:07;23.82;;;15.06;;
44987;SDS011;35735;52.226;21.254;2024-02-15T22:01:08;23.90;;;15.10;;
44987;SDS011;35735;52.226;21.254;2024-02-15T22:06:28;27.98;;;16.73;;
44987;SDS011;35735;52.226;21.254;2024-02-15T22:11:29;21.05;;;13.35;;
44987;SDS011;35735;52.226;21.254;2024-02-15T22:16:30;23.25;;;15.02;;
44987;SDS011;35735;52.226;21.254;2024-02-15T22:21:32;19.62;;;14.02;;
44987;SDS011;35735;52.226;21.254;2024-02-15T22:26:33;21.65;;;14.43;;
44987;SDS011;35735;52.226;21.254;2024-02-15T22:31:34;21.37;;;14.32;;
44987;SDS011;35735;52.226;21.254;2024-02-15T22:36:36;22.40;;;13.10;;
44987;SDS011;35735;52.226;21.254;2024-02-15T22:41:37;22.77;;;14.00;;
44987;SDS011;35735;52.226;21.254;2024-02-15T22:46:45;22.70;;;13.57;;
44987;SDS011;35735;52.226;21.254;2024-02-15T22:51:50;23.17;;;12.75;;
44987;SDS011;35735;52.226;21.254;2024-02-15T22:56:51;24.23;;;13.20;;
44987;SDS011;35735;52.226;21.254;2024-02-15T23:01:52;19.73;;;12.88;;
44987;SDS011;35735;52.226;21.254;2024-02-15T23:06:54;19.90;;;12.03;;
44987;SDS011;35735;52.226;21.254;2024-02-15T23:11:55;20.85;;;13.07;;
44987;SDS011;35735;52.226;21.254;2024-02-15T23:16:56;17.77;;;12.05;;
44987;SDS011;35735;52.226;21.254;2024-02-15T23:21:58;16.67;;;11.70;;
44987;SDS011;35735;52.226;21.254;2024-02-15T23:26:59;21.00;;;12.32;;
44987;SDS011;35735;52.226;21.254;2024-02-15T23:32:00;18.42;;;11.80;;
44987;SDS011;35735;52.226;21.254;2024-02-15T23:37:02;17.48;;;11.68;;
44987;SDS011;35735;52.226;21.254;2024-02-15T23:42:04;18.75;;;11.48;;
44987;SDS011;35735;52.226;21.254;2024-02-15T23:47:05;17.40;;;11.15;;
44987;SDS011;35735;52.226;21.254;2024-02-15T23:52:07;16.62;;;11.38;;
44987;SDS011;35735;52.226;21.254;2024-02-15T23:57:08;18.23;;;11.50;;
